sensor_id;sensor_type;location;lat;lon;timestamp;P1;durP1;ratioP1;P2;durP2;ratioP2
1679;SDS011;838;51.794;12.258;2024-01-10T00:01:23;26.83;;;14.23;;
1679;SDS011;838;51.794;12.258;2024-01-10T00:03:52;26.70;;;14.50;;
1679;SDS011;838;51.794;12.258;2024-01-10T00:06:18;23.30;;;12.37;;
1679;SDS011;838;51.794;12.258;2024-01-10T00:08:44;27.80;;;12.90;;
1679;SDS011;838;51.794;12.258;2024-01-10T00:11:10;18.93;;;12.70;;
1679;SDS011;838;51.794;12.258;2024-01-10T00:13:35;28.17;;;12.67;;
1679;SDS011;838;51.794;12.258;2024-01-10T00:16:01;21.90;;;13.80;;
1679;SDS011;838;51.794;12.258;2024-01-10T00:18:27;30.43;;;13.10;;
1679;SDS011;838;51.794;12.258;2024-01-10T00:20:53;28.13;;;12.00;;
1679;SDS011;838;51.794;12.258;2024-01-10T00:23:19;20.27;;;13.30;;
1679;SDS011;838;51.794;12.258;2024-01-10T00:25:46;24.90;;;11.70;;
1679;SDS011;838;51.794;12.258;2024-01-10T00:28:12;32.93;;;15.10;;
1679;SDS011;838;51.794;12.258;2024-01-10T00:30:37;34.77;;;15.17;;
1679;SDS011;838;51.794;12.258;2024-01-10T00:33:04;27.57;;;13.60;;
1679;SDS011;838;51.794;12.258;2024-01-10T00:35:30;26.87;;;12.20;;
1679;SDS011;838;51.794;12.258;2024-01-10T00:37:56;24.27;;;13.30;;
1679;SDS011;838;51.794;12.258;2024-01-10T00:40:22;23.80;;;12.17;;
1679;SDS011;838;51.794;12.258;2024-01-10T00:42:48;24.93;;;12.57;;
1679;SDS011;838;51.794;12.258;2024-01-10T00:45:15;30.93;;;14.40;;
1679;SDS011;838;51.794;12.258;2024-01-10T00:47:41;25.47;;;12.57;;
1679;SDS011;838;51.794;12.258;2024-01-10T00:50:07;21.77;;;11.37;;
1679;SDS011;838;51.794;12.258;2024-01-10T00:52:33;29.13;;;12.90;;
1679;SDS011;838;51.794;12.258;2024-01-10T00:54:59;27.30;;;13.77;;
1679;SDS011;838;51.794;12.258;2024-01-10T00:57:25;30.33;;;12.40;;
1679;SDS011;838;51.794;12.258;2024-01-10T00:59:51;25.80;;;12.70;;
1679;SDS011;838;51.794;12.258;2024-01-10T01:02:17;29.73;;;14.90;;
1679;SDS011;838;51.794;12.258;2024-01-10T01:04:42;33.90;;;14.10;;
1679;SDS011;838;51.794;12.258;2024-01-10T01:07:08;23.73;;;12.47;;
1679;SDS011;838;51.794;12.258;2024-01-10T01:09:34;21.60;;;13.50;;
1679;SDS011;838;51.794;12.258;2024-01-10T01:12:00;31.97;;;13.73;;
1679;SDS011;838;51.794;12.258;2024-01-10T01:14:26;26.40;;;12.33;;
1679;SDS011;838;51.794;12.258;2024-01-10T01:16:51;28.17;;;12.77;;
1679;SDS011;838;51.794;12.258;2024-01-10T01:19:17;31.97;;;13.50;;
1679;SDS011;838;51.794;12.258;2024-01-10T01:21:43;24.23;;;13.27;;
1679;SDS011;838;51.794;12.258;2024-01-10T01:24:09;28.33;;;12.20;;
1679;SDS011;838;51.794;12.258;2024-01-10T01:26:34;17.33;;;10.80;;
1679;SDS011;838;51.794;12.258;2024-01-10T01:29:00;28.53;;;14.30;;
1679;SDS011;838;51.794;12.258;2024-01-10T01:31:26;22.33;;;12.40;;
1679;SDS011;838;51.794;12.258;2024-01-10T01:33:52;23.00;;;12.20;;
1679;SDS011;838;51.794;12.258;2024-01-10T01:36:17;20.73;;;11.27;;
1679;SDS011;838;51.794;12.258;2024-01-10T01:38:43;20.80;;;12.17;;
1679;SDS011;838;51.794;12.258;2024-01-10T01:41:09;28.33;;;12.77;;
1679;SDS011;838;51.794;12.258;2024-01-10T01:43:35;20.47;;;10.60;;
1679;SDS011;838;51.794;12.258;2024-01-10T01:46:01;30.00;;;12.30;;
1679;SDS011;838;51.794;12.258;2024-01-10T01:48:28;28.00;;;11.67;;
1679;SDS011;838;51.794;12.258;2024-01-10T01:50:56;17.23;;;11.97;;
1679;SDS011;838;51.794;12.258;2024-01-10T01:53:24;22.07;;;11.63;;
1679;SDS011;838;51.794;12.258;2024-01-10T01:55:51;24.53;;;12.83;;
1679;SDS011;838;51.794;12.258;2024-01-10T01:58:18;16.77;;;10.93;;
1679;SDS011;838;51.794;12.258;2024-01-10T02:00:45;23.40;;;11.20;;
1679;SDS011;838;51.794;12.258;2024-01-10T02:03:11;25.03;;;13.83;;
1679;SDS011;838;51.794;12.258;2024-01-10T02:05:38;27.13;;;11.83;;
1679;SDS011;838;51.794;12.258;2024-01-10T02:08:04;24.33;;;12.43;;
1679;SDS011;838;51.794;12.258;2024-01-10T02:10:29;23.33;;;13.37;;
1679;SDS011;838;51.794;12.258;2024-01-10T02:12:55;18.60;;;11.43;;
1679;SDS011;838;51.794;12.258;2024-01-10T02:15:21;22.03;;;12.43;;
1679;SDS011;838;51.794;12.258;2024-01-10T02:17:47;24.70;;;14.40;;
1679;SDS011;838;51.794;12.258;2024-01-10T02:20:13;20.57;;;11.73;;
1679;SDS011;838;51.794;12.258;2024-01-10T02:22:42;25.23;;;12.17;;
1679;SDS011;838;51.794;12.258;2024-01-10T02:25:09;26.27;;;11.60;;
1679;SDS011;838;51.794;12.258;2024-01-10T02:27:35;28.83;;;12.60;;
1679;SDS011;838;51.794;12.258;2024-01-10T02:30:03;23.00;;;11.70;;
1679;SDS011;838;51.794;12.258;2024-01-10T02:32:29;26.33;;;12.17;;
1679;SDS011;838;51.794;12.258;2024-01-10T02:34:55;26.63;;;13.80;;
1679;SDS011;838;51.794;12.258;2024-01-10T02:37:21;29.80;;;11.60;;
1679;SDS011;838;51.794;12.258;2024-01-10T02:39:47;18.97;;;11.60;;
1679;SDS011;838;51.794;12.258;2024-01-10T02:42:13;22.07;;;14.53;;
1679;SDS011;838;51.794;12.258;2024-01-10T02:44:38;23.73;;;12.83;;
1679;SDS011;838;51.794;12.258;2024-01-10T02:47:05;25.97;;;11.67;;
1679;SDS011;838;51.794;12.258;2024-01-10T02:49:31;22.73;;;12.70;;
1679;SDS011;838;51.794;12.258;2024-01-10T02:51:57;23.00;;;10.43;;
1679;SDS011;838;51.794;12.258;2024-01-10T02:54:23;28.60;;;13.60;;
1679;SDS011;838;51.794;12.258;2024-01-10T02:56:49;25.27;;;12.40;;
1679;SDS011;838;51.794;12.258;2024-01-10T02:59:15;20.20;;;13.03;;
1679;SDS011;838;51.794;12.258;2024-01-10T03:01:41;22.17;;;12.70;;
1679;SDS011;838;51.794;12.258;2024-01-10T03:04:07;20.20;;;10.87;;
1679;SDS011;838;51.794;12.258;2024-01-10T03:06:32;22.00;;;11.70;;
1679;SDS011;838;51.794;12.258;2024-01-10T03:08:58;23.57;;;12.30;;
1679;SDS011;838;51.794;12.258;2024-01-10T03:11:24;28.63;;;14.20;;
1679;SDS011;838;51.794;12.258;2024-01-10T03:13:51;24.20;;;10.17;;
1679;SDS011;838;51.794;12.258;2024-01-10T03:16:25;24.70;;;11.20;;
1679;SDS011;838;51.794;12.258;2024-01-10T03:18:51;19.77;;;11.93;;
1679;SDS011;838;51.794;12.258;2024-01-10T03:21:17;18.03;;;11.20;;
1679;SDS011;838;51.794;12.258;2024-01-10T03:23:49;24.50;;;11.87;;
1679;SDS011;838;51.794;12.258;2024-01-10T03:26:22;25.43;;;12.97;;
1679;SDS011;838;51.794;12.258;2024-01-10T03:28:48;24.70;;;12.00;;
1679;SDS011;838;51.794;12.258;2024-01-10T03:31:14;21.90;;;11.77;;
1679;SDS011;838;51.794;12.258;2024-01-10T03:33:40;19.53;;;10.87;;
1679;SDS011;838;51.794;12.258;2024-01-10T03:36:06;20.83;;;10.90;;
1679;SDS011;838;51.794;12.258;2024-01-10T03:38:34;24.80;;;12.17;;
1679;SDS011;838;51.794;12.258;2024-01-10T03:40:59;21.73;;;11.80;;
1679;SDS011;838;51.794;12.258;2024-01-10T03:43:25;21.17;;;12.27;;
1679;SDS011;838;51.794;12.258;2024-01-10T03:45:51;19.20;;;11.17;;
1679;SDS011;838;51.794;12.258;2024-01-10T03:48:16;25.93;;;12.60;;
1679;SDS011;838;51.794;12.258;2024-01-10T03:50:42;25.00;;;12.83;;
1679;SDS011;838;51.794;12.258;2024-01-10T03:53:08;20.33;;;10.40;;
1679;SDS011;838;51.794;12.258;2024-01-10T03:55:33;22.03;;;10.87;;
1679;SDS011;838;51.794;12.258;2024-01-10T03:57:59;25.50;;;12.13;;
1679;SDS011;838;51.794;12.258;2024-01-10T04:00:25;22.10;;;9.40;;
1679;SDS011;838;51.794;12.258;2024-01-10T04:02:51;27.40;;;13.77;;
1679;SDS011;838;51.794;12.258;2024-01-10T04:05:17;22.60;;;11.47;;
1679;SDS011;838;51.794;12.258;2024-01-10T04:07:44;25.80;;;13.83;;
1679;SDS011;838;51.794;12.258;2024-01-10T04:10:10;31.17;;;13.33;;
1679;SDS011;838;51.794;12.258;2024-01-10T04:12:42;29.03;;;14.60;;
1679;SDS011;838;51.794;12.258;2024-01-10T04:15:08;22.83;;;13.93;;
1679;SDS011;838;51.794;12.258;2024-01-10T04:17:34;23.23;;;13.40;;
1679;SDS011;838;51.794;12.258;2024-01-10T04:20:00;19.57;;;13.03;;
1679;SDS011;838;51.794;12.258;2024-01-10T04:22:27;30.03;;;13.60;;
1679;SDS011;838;51.794;12.258;2024-01-10T04:24:53;32.00;;;12.90;;
1679;SDS011;838;51.794;12.258;2024-01-10T04:27:23;33.67;;;14.97;;
1679;SDS011;838;51.794;12.258;2024-01-10T04:29:48;26.30;;;12.70;;
1679;SDS011;838;51.794;12.258;2024-01-10T04:32:14;22.30;;;11.83;;
1679;SDS011;838;51.794;12.258;2024-01-10T04:34:40;26.70;;;13.83;;
1679;SDS011;838;51.794;12.258;2024-01-10T04:37:06;25.70;;;13.00;;
1679;SDS011;838;51.794;12.258;2024-01-10T04:39:34;26.67;;;14.20;;
1679;SDS011;838;51.794;12.258;2024-01-10T04:42:00;30.53;;;14.07;;
1679;SDS011;838;51.794;12.258;2024-01-10T04:44:27;33.23;;;16.87;;
1679;SDS011;838;51.794;12.258;2024-01-10T04:46:53;27.93;;;16.17;;
1679;SDS011;838;51.794;12.258;2024-01-10T04:49:18;33.87;;;16.87;;
1679;SDS011;838;51.794;12.258;2024-01-10T04:51:44;32.30;;;12.77;;
1679;SDS011;838;51.794;12.258;2024-01-10T04:54:10;31.03;;;16.80;;
1679;SDS011;838;51.794;12.258;2024-01-10T04:56:36;28.67;;;12.80;;
1679;SDS011;838;51.794;12.258;2024-01-10T04:59:02;35.67;;;16.47;;
1679;SDS011;838;51.794;12.258;2024-01-10T05:01:28;23.10;;;14.90;;
1679;SDS011;838;51.794;12.258;2024-01-10T05:03:54;26.77;;;14.40;;
1679;SDS011;838;51.794;12.258;2024-01-10T05:06:20;24.57;;;13.07;;
1679;SDS011;838;51.794;12.258;2024-01-10T05:08:45;32.90;;;16.13;;
1679;SDS011;838;51.794;12.258;2024-01-10T05:11:11;26.90;;;16.23;;
1679;SDS011;838;51.794;12.258;2024-01-10T05:13:39;31.03;;;13.83;;
1679;SDS011;838;51.794;12.258;2024-01-10T05:16:05;28.27;;;15.40;;
1679;SDS011;838;51.794;12.258;2024-01-10T05:18:31;23.13;;;12.20;;
1679;SDS011;838;51.794;12.258;2024-01-10T05:20:56;31.00;;;15.50;;
1679;SDS011;838;51.794;12.258;2024-01-10T05:23:23;33.17;;;16.27;;
1679;SDS011;838;51.794;12.258;2024-01-10T05:25:48;25.67;;;14.43;;
1679;SDS011;838;51.794;12.258;2024-01-10T05:28:14;32.00;;;13.50;;
1679;SDS011;838;51.794;12.258;2024-01-10T05:30:40;31.07;;;14.93;;
1679;SDS011;838;51.794;12.258;2024-01-10T05:33:08;26.70;;;14.17;;
1679;SDS011;838;51.794;12.258;2024-01-10T05:35:34;28.43;;;14.77;;
1679;SDS011;838;51.794;12.258;2024-01-10T05:38:01;39.60;;;19.30;;
1679;SDS011;838;51.794;12.258;2024-01-10T05:40:29;59.27;;;26.47;;
1679;SDS011;838;51.794;12.258;2024-01-10T05:42:56;37.93;;;17.97;;
1679;SDS011;838;51.794;12.258;2024-01-10T05:45:24;39.37;;;16.33;;
1679;SDS011;838;51.794;12.258;2024-01-10T05:47:50;26.17;;;15.50;;
1679;SDS011;838;51.794;12.258;2024-01-10T05:50:16;44.23;;;16.13;;
1679;SDS011;838;51.794;12.258;2024-01-10T05:52:42;32.63;;;16.20;;
1679;SDS011;838;51.794;12.258;2024-01-10T05:55:08;29.50;;;13.90;;
1679;SDS011;838;51.794;12.258;2024-01-10T05:57:35;33.07;;;16.70;;
1679;SDS011;838;51.794;12.258;2024-01-10T06:00:04;31.63;;;17.27;;
1679;SDS011;838;51.794;12.258;2024-01-10T06:02:37;33.63;;;15.70;;
1679;SDS011;838;51.794;12.258;2024-01-10T06:05:06;45.30;;;14.93;;
1679;SDS011;838;51.794;12.258;2024-01-10T06:07:34;19.97;;;13.80;;
1679;SDS011;838;51.794;12.258;2024-01-10T06:10:00;25.70;;;13.70;;
1679;SDS011;838;51.794;12.258;2024-01-10T06:12:26;26.03;;;13.00;;
1679;SDS011;838;51.794;12.258;2024-01-10T06:14:53;29.07;;;13.80;;
1679;SDS011;838;51.794;12.258;2024-01-10T06:17:19;29.00;;;14.40;;
1679;SDS011;838;51.794;12.258;2024-01-10T06:19:45;24.37;;;13.57;;
1679;SDS011;838;51.794;12.258;2024-01-10T06:22:10;36.97;;;15.60;;
1679;SDS011;838;51.794;12.258;2024-01-10T06:24:36;30.50;;;14.60;;
1679;SDS011;838;51.794;12.258;2024-01-10T06:27:08;23.70;;;13.93;;
1679;SDS011;838;51.794;12.258;2024-01-10T06:29:37;33.27;;;16.60;;
1679;SDS011;838;51.794;12.258;2024-01-10T06:32:06;34.83;;;14.50;;
1679;SDS011;838;51.794;12.258;2024-01-10T06:34:32;26.53;;;12.53;;
1679;SDS011;838;51.794;12.258;2024-01-10T06:36:58;32.93;;;16.30;;
1679;SDS011;838;51.794;12.258;2024-01-10T06:39:24;34.33;;;15.97;;
1679;SDS011;838;51.794;12.258;2024-01-10T06:41:50;31.67;;;17.60;;
1679;SDS011;838;51.794;12.258;2024-01-10T06:44:16;33.23;;;16.80;;
1679;SDS011;838;51.794;12.258;2024-01-10T06:46:45;34.03;;;17.87;;
1679;SDS011;838;51.794;12.258;2024-01-10T06:49:11;36.53;;;18.20;;
1679;SDS011;838;51.794;12.258;2024-01-10T06:51:37;29.70;;;14.97;;
1679;SDS011;838;51.794;12.258;2024-01-10T06:54:03;37.70;;;19.80;;
1679;SDS011;838;51.794;12.258;2024-01-10T06:56:30;38.87;;;17.83;;
1679;SDS011;838;51.794;12.258;2024-01-10T06:58:57;46.30;;;20.67;;
1679;SDS011;838;51.794;12.258;2024-01-10T07:01:23;43.10;;;21.83;;
1679;SDS011;838;51.794;12.258;2024-01-10T07:03:49;37.43;;;22.87;;
1679;SDS011;838;51.794;12.258;2024-01-10T07:06:15;37.83;;;21.47;;
1679;SDS011;838;51.794;12.258;2024-01-10T07:08:41;38.60;;;20.60;;
1679;SDS011;838;51.794;12.258;2024-01-10T07:11:07;38.30;;;20.37;;
1679;SDS011;838;51.794;12.258;2024-01-10T07:13:34;38.07;;;17.97;;
1679;SDS011;838;51.794;12.258;2024-01-10T07:15:59;36.87;;;16.20;;
1679;SDS011;838;51.794;12.258;2024-01-10T07:18:27;27.37;;;15.63;;
1679;SDS011;838;51.794;12.258;2024-01-10T07:20:54;35.80;;;18.60;;
1679;SDS011;838;51.794;12.258;2024-01-10T07:23:19;32.13;;;15.77;;
1679;SDS011;838;51.794;12.258;2024-01-10T07:25:45;42.93;;;19.97;;
1679;SDS011;838;51.794;12.258;2024-01-10T07:28:11;31.13;;;13.73;;
1679;SDS011;838;51.794;12.258;2024-01-10T07:30:36;35.50;;;17.37;;
1679;SDS011;838;51.794;12.258;2024-01-10T07:33:02;43.73;;;18.50;;
1679;SDS011;838;51.794;12.258;2024-01-10T07:35:28;38.53;;;17.80;;
1679;SDS011;838;51.794;12.258;2024-01-10T07:37:55;33.93;;;16.90;;
1679;SDS011;838;51.794;12.258;2024-01-10T07:40:21;38.67;;;15.77;;
1679;SDS011;838;51.794;12.258;2024-01-10T07:42:47;36.40;;;17.80;;
1679;SDS011;838;51.794;12.258;2024-01-10T07:45:13;34.23;;;17.23;;
1679;SDS011;838;51.794;12.258;2024-01-10T07:47:39;30.27;;;15.73;;
1679;SDS011;838;51.794;12.258;2024-01-10T07:50:05;39.33;;;19.50;;
1679;SDS011;838;51.794;12.258;2024-01-10T07:52:32;44.67;;;18.57;;
1679;SDS011;838;51.794;12.258;2024-01-10T07:54:58;31.13;;;17.23;;
1679;SDS011;838;51.794;12.258;2024-01-10T07:57:23;31.53;;;19.37;;
1679;SDS011;838;51.794;12.258;2024-01-10T07:59:49;49.80;;;20.67;;
1679;SDS011;838;51.794;12.258;2024-01-10T08:02:15;33.73;;;19.37;;
1679;SDS011;838;51.794;12.258;2024-01-10T08:04:41;38.77;;;21.37;;
1679;SDS011;838;51.794;12.258;2024-01-10T08:07:07;41.93;;;20.40;;
1679;SDS011;838;51.794;12.258;2024-01-10T08:09:33;34.67;;;19.80;;
1679;SDS011;838;51.794;12.258;2024-01-10T08:11:59;38.70;;;19.60;;
1679;SDS011;838;51.794;12.258;2024-01-10T08:14:25;34.40;;;21.13;;
1679;SDS011;838;51.794;12.258;2024-01-10T08:16:51;45.20;;;23.07;;
1679;SDS011;838;51.794;12.258;2024-01-10T08:19:19;47.30;;;23.97;;
1679;SDS011;838;51.794;12.258;2024-01-10T08:21:45;39.83;;;22.03;;
1679;SDS011;838;51.794;12.258;2024-01-10T08:24:14;46.10;;;20.80;;
1679;SDS011;838;51.794;12.258;2024-01-10T08:26:40;42.43;;;22.13;;
1679;SDS011;838;51.794;12.258;2024-01-10T08:29:05;46.67;;;22.60;;
1679;SDS011;838;51.794;12.258;2024-01-10T08:31:31;46.23;;;23.30;;
1679;SDS011;838;51.794;12.258;2024-01-10T08:33:57;39.83;;;19.20;;
1679;SDS011;838;51.794;12.258;2024-01-10T08:36:22;40.87;;;18.63;;
1679;SDS011;838;51.794;12.258;2024-01-10T08:38:49;38.30;;;21.23;;
1679;SDS011;838;51.794;12.258;2024-01-10T08:41:16;53.80;;;25.17;;
1679;SDS011;838;51.794;12.258;2024-01-10T08:43:42;51.87;;;23.10;;
1679;SDS011;838;51.794;12.258;2024-01-10T08:46:08;45.37;;;20.33;;
1679;SDS011;838;51.794;12.258;2024-01-10T08:48:34;36.87;;;20.20;;
1679;SDS011;838;51.794;12.258;2024-01-10T08:51:01;50.70;;;21.80;;
1679;SDS011;838;51.794;12.258;2024-01-10T08:53:27;56.23;;;24.00;;
1679;SDS011;838;51.794;12.258;2024-01-10T08:55:53;46.40;;;21.27;;
1679;SDS011;838;51.794;12.258;2024-01-10T08:58:19;44.67;;;21.53;;
1679;SDS011;838;51.794;12.258;2024-01-10T09:00:45;45.33;;;20.83;;
1679;SDS011;838;51.794;12.258;2024-01-10T09:03:11;42.67;;;22.17;;
1679;SDS011;838;51.794;12.258;2024-01-10T09:05:37;43.73;;;22.80;;
1679;SDS011;838;51.794;12.258;2024-01-10T09:08:04;40.83;;;20.50;;
1679;SDS011;838;51.794;12.258;2024-01-10T09:10:30;46.57;;;22.50;;
1679;SDS011;838;51.794;12.258;2024-01-10T09:12:57;50.97;;;23.37;;
1679;SDS011;838;51.794;12.258;2024-01-10T09:15:23;37.57;;;19.40;;
1679;SDS011;838;51.794;12.258;2024-01-10T09:17:50;45.37;;;23.27;;
1679;SDS011;838;51.794;12.258;2024-01-10T09:20:17;46.23;;;20.07;;
1679;SDS011;838;51.794;12.258;2024-01-10T09:22:43;45.93;;;25.20;;
1679;SDS011;838;51.794;12.258;2024-01-10T09:25:09;39.13;;;21.67;;
1679;SDS011;838;51.794;12.258;2024-01-10T09:27:38;44.47;;;22.60;;
1679;SDS011;838;51.794;12.258;2024-01-10T09:30:06;51.80;;;24.80;;
1679;SDS011;838;51.794;12.258;2024-01-10T09:32:35;40.50;;;22.80;;
1679;SDS011;838;51.794;12.258;2024-01-10T09:35:01;41.13;;;20.30;;
1679;SDS011;838;51.794;12.258;2024-01-10T09:37:27;39.60;;;21.80;;
1679;SDS011;838;51.794;12.258;2024-01-10T09:39:53;50.03;;;24.57;;
1679;SDS011;838;51.794;12.258;2024-01-10T09:42:19;46.50;;;23.70;;
1679;SDS011;838;51.794;12.258;2024-01-10T09:44:50;45.43;;;21.30;;
1679;SDS011;838;51.794;12.258;2024-01-10T09:47:16;51.87;;;24.07;;
1679;SDS011;838;51.794;12.258;2024-01-10T09:49:45;39.40;;;19.83;;
1679;SDS011;838;51.794;12.258;2024-01-10T09:52:11;42.97;;;23.80;;
1679;SDS011;838;51.794;12.258;2024-01-10T09:54:47;48.63;;;25.27;;
1679;SDS011;838;51.794;12.258;2024-01-10T09:57:18;53.37;;;25.20;;
1679;SDS011;838;51.794;12.258;2024-01-10T09:59:45;61.27;;;26.27;;
1679;SDS011;838;51.794;12.258;2024-01-10T10:02:13;49.23;;;23.30;;
1679;SDS011;838;51.794;12.258;2024-01-10T10:04:41;49.80;;;25.57;;
1679;SDS011;838;51.794;12.258;2024-01-10T10:07:15;41.80;;;23.27;;
1679;SDS011;838;51.794;12.258;2024-01-10T10:09:41;53.87;;;25.83;;
1679;SDS011;838;51.794;12.258;2024-01-10T10:12:07;59.83;;;26.50;;
1679;SDS011;838;51.794;12.258;2024-01-10T10:14:33;50.27;;;25.93;;
1679;SDS011;838;51.794;12.258;2024-01-10T10:17:17;42.50;;;23.57;;
1679;SDS011;838;51.794;12.258;2024-01-10T10:19:43;51.63;;;25.90;;
1679;SDS011;838;51.794;12.258;2024-01-10T10:22:09;43.73;;;23.40;;
1679;SDS011;838;51.794;12.258;2024-01-10T10:24:36;54.60;;;25.40;;
1679;SDS011;838;51.794;12.258;2024-01-10T10:27:11;49.93;;;24.80;;
1679;SDS011;838;51.794;12.258;2024-01-10T10:29:40;48.07;;;24.07;;
1679;SDS011;838;51.794;12.258;2024-01-10T10:32:05;53.87;;;23.30;;
1679;SDS011;838;51.794;12.258;2024-01-10T10:34:33;47.10;;;22.60;;
1679;SDS011;838;51.794;12.258;2024-01-10T10:36:59;49.83;;;24.30;;
1679;SDS011;838;51.794;12.258;2024-01-10T10:39:25;53.87;;;25.40;;
1679;SDS011;838;51.794;12.258;2024-01-10T10:41:51;52.67;;;26.63;;
1679;SDS011;838;51.794;12.258;2024-01-10T10:44:19;47.57;;;23.37;;
1679;SDS011;838;51.794;12.258;2024-01-10T10:46:55;51.27;;;25.70;;
1679;SDS011;838;51.794;12.258;2024-01-10T10:49:28;55.70;;;26.93;;
1679;SDS011;838;51.794;12.258;2024-01-10T10:51:57;58.20;;;25.47;;
1679;SDS011;838;51.794;12.258;2024-01-10T10:54:25;57.87;;;28.10;;
1679;SDS011;838;51.794;12.258;2024-01-10T10:56:54;56.67;;;25.73;;
1679;SDS011;838;51.794;12.258;2024-01-10T10:59:23;55.40;;;25.97;;
1679;SDS011;838;51.794;12.258;2024-01-10T11:01:51;46.90;;;25.40;;
1679;SDS011;838;51.794;12.258;2024-01-10T11:04:19;50.57;;;25.47;;
1679;SDS011;838;51.794;12.258;2024-01-10T11:06:46;54.10;;;26.27;;
1679;SDS011;838;51.794;12.258;2024-01-10T11:09:12;53.17;;;24.47;;
1679;SDS011;838;51.794;12.258;2024-01-10T11:18:13;46.17;;;23.20;;
1679;SDS011;838;51.794;12.258;2024-01-10T11:21:06;50.00;;;23.80;;
1679;SDS011;838;51.794;12.258;2024-01-10T11:23:47;45.13;;;25.90;;
1679;SDS011;838;51.794;12.258;2024-01-10T11:26:16;42.53;;;24.10;;
1679;SDS011;838;51.794;12.258;2024-01-10T11:28:44;48.10;;;23.00;;
1679;SDS011;838;51.794;12.258;2024-01-10T11:31:12;49.63;;;24.10;;
1679;SDS011;838;51.794;12.258;2024-01-10T11:33:41;56.57;;;26.90;;
1679;SDS011;838;51.794;12.258;2024-01-10T11:41:31;51.10;;;24.50;;
1679;SDS011;838;51.794;12.258;2024-01-10T11:46:46;36.27;;;18.77;;
1679;SDS011;838;51.794;12.258;2024-01-10T11:49:18;40.20;;;23.20;;
1679;SDS011;838;51.794;12.258;2024-01-10T11:51:46;49.33;;;24.63;;
1679;SDS011;838;51.794;12.258;2024-01-10T11:57:10;41.93;;;21.97;;
1679;SDS011;838;51.794;12.258;2024-01-10T11:59:42;43.93;;;22.87;;
1679;SDS011;838;51.794;12.258;2024-01-10T12:02:13;45.10;;;23.50;;
1679;SDS011;838;51.794;12.258;2024-01-10T12:04:39;47.97;;;24.40;;
1679;SDS011;838;51.794;12.258;2024-01-10T12:07:06;47.83;;;25.87;;
1679;SDS011;838;51.794;12.258;2024-01-10T12:09:33;49.27;;;23.17;;
1679;SDS011;838;51.794;12.258;2024-01-10T12:12:01;53.23;;;21.77;;
1679;SDS011;838;51.794;12.258;2024-01-10T12:14:27;51.27;;;23.80;;
1679;SDS011;838;51.794;12.258;2024-01-10T12:16:56;38.77;;;20.07;;
1679;SDS011;838;51.794;12.258;2024-01-10T12:19:22;42.10;;;24.30;;
1679;SDS011;838;51.794;12.258;2024-01-10T12:21:50;50.50;;;23.23;;
1679;SDS011;838;51.794;12.258;2024-01-10T12:24:17;41.27;;;21.43;;
1679;SDS011;838;51.794;12.258;2024-01-10T12:26:46;46.43;;;24.23;;
1679;SDS011;838;51.794;12.258;2024-01-10T12:29:13;42.53;;;22.30;;
1679;SDS011;838;51.794;12.258;2024-01-10T12:31:43;44.70;;;21.40;;
1679;SDS011;838;51.794;12.258;2024-01-10T12:34:10;44.50;;;23.40;;
1679;SDS011;838;51.794;12.258;2024-01-10T12:36:36;41.80;;;23.20;;
1679;SDS011;838;51.794;12.258;2024-01-10T12:39:03;40.60;;;23.30;;
1679;SDS011;838;51.794;12.258;2024-01-10T12:41:32;51.50;;;23.70;;
1679;SDS011;838;51.794;12.258;2024-01-10T12:43:58;47.03;;;25.97;;
1679;SDS011;838;51.794;12.258;2024-01-10T12:46:28;43.27;;;23.10;;
1679;SDS011;838;51.794;12.258;2024-01-10T12:49:07;47.20;;;24.00;;
1679;SDS011;838;51.794;12.258;2024-01-10T12:51:33;52.50;;;25.10;;
1679;SDS011;838;51.794;12.258;2024-01-10T12:54:01;43.40;;;22.47;;
1679;SDS011;838;51.794;12.258;2024-01-10T12:56:30;48.47;;;25.37;;
1679;SDS011;838;51.794;12.258;2024-01-10T12:58:56;48.60;;;24.23;;
1679;SDS011;838;51.794;12.258;2024-01-10T13:01:23;56.10;;;26.40;;
1679;SDS011;838;51.794;12.258;2024-01-10T13:03:50;49.40;;;25.43;;
1679;SDS011;838;51.794;12.258;2024-01-10T13:06:16;50.50;;;23.90;;
1679;SDS011;838;51.794;12.258;2024-01-10T13:08:43;33.37;;;20.83;;
1679;SDS011;838;51.794;12.258;2024-01-10T13:11:10;43.97;;;23.27;;
1679;SDS011;838;51.794;12.258;2024-01-10T13:13:37;52.67;;;23.40;;
1679;SDS011;838;51.794;12.258;2024-01-10T13:16:03;42.93;;;23.03;;
1679;SDS011;838;51.794;12.258;2024-01-10T13:18:29;39.30;;;23.50;;
1679;SDS011;838;51.794;12.258;2024-01-10T13:20:55;40.40;;;21.33;;
1679;SDS011;838;51.794;12.258;2024-01-10T13:23:22;45.77;;;23.17;;
1679;SDS011;838;51.794;12.258;2024-01-10T13:25:49;45.33;;;23.43;;
1679;SDS011;838;51.794;12.258;2024-01-10T13:28:15;45.53;;;23.87;;
1679;SDS011;838;51.794;12.258;2024-01-10T13:30:41;43.23;;;22.13;;
1679;SDS011;838;51.794;12.258;2024-01-10T13:33:10;35.73;;;21.43;;
1679;SDS011;838;51.794;12.258;2024-01-10T13:35:36;47.80;;;22.90;;
1679;SDS011;838;51.794;12.258;2024-01-10T13:38:03;46.83;;;22.93;;
1679;SDS011;838;51.794;12.258;2024-01-10T13:40:29;45.10;;;23.00;;
1679;SDS011;838;51.794;12.258;2024-01-10T13:42:56;44.27;;;22.73;;
1679;SDS011;838;51.794;12.258;2024-01-10T13:45:23;41.10;;;23.67;;
1679;SDS011;838;51.794;12.258;2024-01-10T13:47:48;43.27;;;24.60;;
1679;SDS011;838;51.794;12.258;2024-01-10T13:50:14;44.50;;;22.37;;
1679;SDS011;838;51.794;12.258;2024-01-10T13:52:41;49.40;;;24.30;;
1679;SDS011;838;51.794;12.258;2024-01-10T13:55:07;48.23;;;26.97;;
1679;SDS011;838;51.794;12.258;2024-01-10T13:57:34;44.43;;;23.80;;
1679;SDS011;838;51.794;12.258;2024-01-10T14:00:01;49.43;;;26.00;;
1679;SDS011;838;51.794;12.258;2024-01-10T14:02:28;46.53;;;25.30;;
1679;SDS011;838;51.794;12.258;2024-01-10T14:04:54;50.33;;;25.03;;
1679;SDS011;838;51.794;12.258;2024-01-10T14:07:20;45.00;;;24.30;;
1679;SDS011;838;51.794;12.258;2024-01-10T14:09:46;41.70;;;23.40;;
1679;SDS011;838;51.794;12.258;2024-01-10T14:12:12;54.27;;;25.57;;
1679;SDS011;838;51.794;12.258;2024-01-10T14:14:38;45.00;;;22.67;;
1679;SDS011;838;51.794;12.258;2024-01-10T14:17:04;44.73;;;23.97;;
1679;SDS011;838;51.794;12.258;2024-01-10T14:19:30;41.33;;;24.60;;
1679;SDS011;838;51.794;12.258;2024-01-10T14:21:57;50.17;;;24.40;;
1679;SDS011;838;51.794;12.258;2024-01-10T14:24:23;41.10;;;22.87;;
1679;SDS011;838;51.794;12.258;2024-01-10T14:26:49;52.03;;;25.17;;
1679;SDS011;838;51.794;12.258;2024-01-10T14:29:15;50.30;;;25.27;;
1679;SDS011;838;51.794;12.258;2024-01-10T14:31:41;45.67;;;25.23;;
1679;SDS011;838;51.794;12.258;2024-01-10T14:34:07;49.00;;;24.70;;
1679;SDS011;838;51.794;12.258;2024-01-10T14:36:34;49.80;;;24.90;;
1679;SDS011;838;51.794;12.258;2024-01-10T14:39:00;58.33;;;25.90;;
1679;SDS011;838;51.794;12.258;2024-01-10T14:41:25;51.90;;;25.10;;
1679;SDS011;838;51.794;12.258;2024-01-10T14:43:51;47.03;;;24.70;;
1679;SDS011;838;51.794;12.258;2024-01-10T14:46:17;46.10;;;23.87;;
1679;SDS011;838;51.794;12.258;2024-01-10T14:48:42;40.87;;;23.30;;
1679;SDS011;838;51.794;12.258;2024-01-10T14:51:08;54.30;;;22.80;;
1679;SDS011;838;51.794;12.258;2024-01-10T14:53:34;46.13;;;24.67;;
1679;SDS011;838;51.794;12.258;2024-01-10T14:56:02;43.53;;;24.80;;
1679;SDS011;838;51.794;12.258;2024-01-10T14:58:29;48.67;;;24.37;;
1679;SDS011;838;51.794;12.258;2024-01-10T15:00:55;43.90;;;25.20;;
1679;SDS011;838;51.794;12.258;2024-01-10T15:03:21;38.47;;;24.70;;